SHU6250 UHWW-RKSI
Flight info
| Callsign | SHU6250 |
|---|---|
| Flight time | 1h 36m |
| Altitude | 34000 |
| Route | VATIS2G VATIS B355 KICHA R452 HAMUN W4 GUMSA DCT CONAR/N0438F350 DCT KARBU KARBU2E |
| Aircraft | A319/M-SDE3FGHIRWY/LB1 |
Departure
| Time | 2026-04-25 06:31 |
|---|---|
| Airport | Vladivostok International Airport (UHWW) |
Arrival
| Time | 2026-04-25 08:08 |
|---|---|
| Airport | Incheon International Airport (RKSI) |
| Time | Latitude | Longitude | Altitude | Speed | Heading |
|---|---|---|---|---|---|
| 2026-04-25 05:27 | 43.39714 | 132.16484 | 70 ft | 0 kts | 152° |
| 2026-04-25 05:29 | 43.39718 | 132.16481 | 70 ft | 0 kts | 152° |
| 2026-04-25 05:30 | 43.39714 | 132.16484 | 70 ft | 0 kts | 152° |
| 2026-04-25 05:37 | 43.39689 | 132.16420 | 70 ft | 0 kts | 152° |
| 2026-04-25 06:12 | 43.39698 | 132.16413 | 69 ft | 4 kts | 152° |
| 2026-04-25 06:12 | 43.39722 | 132.16395 | 64 ft | 4 kts | 152° |
| 2026-04-25 06:12 | 43.39742 | 132.16380 | 61 ft | 3 kts | 151° |
| 2026-04-25 06:13 | 43.39761 | 132.16359 | 69 ft | 4 kts | 112° |
| 2026-04-25 06:13 | 43.39762 | 132.16327 | 67 ft | 4 kts | 63° |
| 2026-04-25 06:13 | 43.39753 | 132.16306 | 69 ft | 0 kts | 62° |
| 2026-04-25 06:21 | 43.39759 | 132.16319 | 69 ft | 5 kts | 62° |
| 2026-04-25 06:22 | 43.39788 | 132.16393 | 64 ft | 10 kts | 61° |
| 2026-04-25 06:22 | 43.39823 | 132.16480 | 69 ft | 11 kts | 61° |
| 2026-04-25 06:22 | 43.39861 | 132.16574 | 64 ft | 12 kts | 60° |
| 2026-04-25 06:22 | 43.39902 | 132.16673 | 64 ft | 12 kts | 61° |
| 2026-04-25 06:23 | 43.39945 | 132.16781 | 64 ft | 13 kts | 61° |
| 2026-04-25 06:23 | 43.39956 | 132.16809 | 69 ft | 0 kts | 61° |
| 2026-04-25 06:23 | 43.39973 | 132.16851 | 69 ft | 12 kts | 61° |
| 2026-04-25 06:23 | 43.40030 | 132.16996 | 69 ft | 19 kts | 61° |
| 2026-04-25 06:24 | 43.40125 | 132.17079 | 68 ft | 18 kts | 340° |
| 2026-04-25 06:24 | 43.40234 | 132.16997 | 67 ft | 18 kts | 332° |
| 2026-04-25 06:24 | 43.40271 | 132.16970 | 67 ft | 0 kts | 332° |
| 2026-04-25 06:25 | 43.40276 | 132.16966 | 69 ft | 1 kts | 332° |
| 2026-04-25 06:26 | 43.40284 | 132.16960 | 69 ft | 2 kts | 332° |
| 2026-04-25 06:26 | 43.40297 | 132.16951 | 69 ft | 2 kts | 332° |
| 2026-04-25 06:26 | 43.40314 | 132.16938 | 69 ft | 3 kts | 332° |
| 2026-04-25 06:26 | 43.40336 | 132.16922 | 64 ft | 3 kts | 332° |
| 2026-04-25 06:28 | 43.40344 | 132.16916 | 61 ft | 5 kts | 332° |
| 2026-04-25 06:28 | 43.40412 | 132.16867 | 66 ft | 14 kts | 332° |
| 2026-04-25 06:28 | 43.40418 | 132.16761 | 68 ft | 4 kts | 239° |
| 2026-04-25 06:28 | 43.40417 | 132.16760 | 68 ft | 0 kts | 239° |
| 2026-04-25 06:30 | 43.40414 | 132.16753 | 61 ft | 3 kts | 239° |
| 2026-04-25 06:30 | 43.40369 | 132.16643 | 62 ft | 42 kts | 241° |
| 2026-04-25 06:31 | 43.40107 | 132.15991 | 62 ft | 111 kts | 240° |
| 2026-04-25 06:31 | 43.39635 | 132.14832 | 83 ft | 163 kts | 240° |
| 2026-04-25 06:31 | 43.39079 | 132.13425 | 559 ft | 168 kts | 239° |
| 2026-04-25 06:31 | 43.38535 | 132.12014 | 1112 ft | 169 kts | 240° |
| 2026-04-25 06:32 | 43.37994 | 132.10595 | 1712 ft | 168 kts | 239° |
| 2026-04-25 06:32 | 43.37395 | 132.09132 | 2012 ft | 185 kts | 238° |
| 2026-04-25 06:32 | 43.36715 | 132.07499 | 2223 ft | 206 kts | 237° |
| 2026-04-25 06:32 | 43.35972 | 132.05710 | 2554 ft | 221 kts | 238° |
| 2026-04-25 06:33 | 43.35214 | 132.03866 | 3226 ft | 221 kts | 237° |
| 2026-04-25 06:33 | 43.34374 | 132.02108 | 3901 ft | 219 kts | 221° |
| 2026-04-25 06:33 | 43.33003 | 132.01303 | 4495 ft | 221 kts | 182° |
| 2026-04-25 06:33 | 43.31528 | 132.01940 | 5108 ft | 231 kts | 152° |
| 2026-04-25 06:34 | 43.30263 | 132.03293 | 5737 ft | 236 kts | 143° |
| 2026-04-25 06:34 | 43.29058 | 132.04835 | 6362 ft | 238 kts | 141° |
| 2026-04-25 06:34 | 43.27844 | 132.06404 | 6944 ft | 242 kts | 143° |
| 2026-04-25 06:34 | 43.26581 | 132.07968 | 7488 ft | 246 kts | 144° |
| 2026-04-25 06:35 | 43.25275 | 132.09513 | 7999 ft | 251 kts | 146° |
| 2026-04-25 06:35 | 43.23923 | 132.11060 | 8523 ft | 256 kts | 147° |
| 2026-04-25 06:35 | 43.22534 | 132.12614 | 9034 ft | 259 kts | 148° |
| 2026-04-25 06:35 | 43.21119 | 132.14177 | 9559 ft | 263 kts | 148° |
| 2026-04-25 06:36 | 43.19670 | 132.15687 | 10043 ft | 265 kts | 156° |
| 2026-04-25 06:36 | 43.18015 | 132.16729 | 10520 ft | 260 kts | 171° |
| 2026-04-25 06:36 | 43.16211 | 132.17144 | 10705 ft | 268 kts | 186° |
| 2026-04-25 06:36 | 43.14310 | 132.17007 | 10836 ft | 281 kts | 191° |
| 2026-04-25 06:37 | 43.12310 | 132.16816 | 10965 ft | 296 kts | 191° |
| 2026-04-25 06:37 | 43.10206 | 132.16632 | 11093 ft | 309 kts | 190° |
| 2026-04-25 06:37 | 43.08022 | 132.16453 | 11269 ft | 319 kts | 189° |
| 2026-04-25 06:37 | 43.05795 | 132.16279 | 11566 ft | 320 kts | 189° |
| 2026-04-25 06:38 | 43.03673 | 132.16128 | 11635 ft | 298 kts | 190° |
| 2026-04-25 06:38 | 43.01640 | 132.15988 | 11088 ft | 290 kts | 190° |
| 2026-04-25 06:38 | 42.99645 | 132.15841 | 10468 ft | 284 kts | 189° |
| 2026-04-25 06:38 | 42.97687 | 132.15689 | 9855 ft | 279 kts | 189° |
| 2026-04-25 06:39 | 42.95772 | 132.15538 | 9269 ft | 272 kts | 189° |
| 2026-04-25 06:39 | 42.93897 | 132.15386 | 8646 ft | 269 kts | 188° |
| 2026-04-25 06:39 | 42.92032 | 132.15235 | 8293 ft | 267 kts | 188° |
| 2026-04-25 06:39 | 42.90170 | 132.15083 | 8405 ft | 270 kts | 188° |
| 2026-04-25 06:40 | 42.88313 | 132.14791 | 9327 ft | 269 kts | 195° |
| 2026-04-25 06:40 | 42.86529 | 132.14153 | 10145 ft | 269 kts | 203° |
| 2026-04-25 06:40 | 42.84794 | 132.13147 | 10854 ft | 273 kts | 212° |
| 2026-04-25 06:40 | 42.83171 | 132.11786 | 11591 ft | 275 kts | 220° |
| 2026-04-25 06:41 | 42.81615 | 132.10237 | 12326 ft | 279 kts | 221° |
| 2026-04-25 06:41 | 42.80037 | 132.08677 | 13081 ft | 282 kts | 221° |
| 2026-04-25 06:41 | 42.78438 | 132.07099 | 13806 ft | 286 kts | 221° |
| 2026-04-25 06:41 | 42.76818 | 132.05507 | 14541 ft | 288 kts | 221° |
| 2026-04-25 06:42 | 42.75184 | 132.03911 | 15239 ft | 291 kts | 221° |
| 2026-04-25 06:42 | 42.73554 | 132.02315 | 15899 ft | 294 kts | 222° |
| 2026-04-25 06:42 | 42.71890 | 132.00684 | 16582 ft | 296 kts | 222° |
| 2026-04-25 06:42 | 42.70213 | 131.99039 | 17231 ft | 299 kts | 222° |
| 2026-04-25 06:43 | 42.68521 | 131.97382 | 17891 ft | 301 kts | 222° |
| 2026-04-25 06:43 | 42.66813 | 131.95709 | 18531 ft | 304 kts | 222° |
| 2026-04-25 06:43 | 42.65090 | 131.94025 | 19142 ft | 306 kts | 222° |
| 2026-04-25 06:43 | 42.63350 | 131.92327 | 19730 ft | 310 kts | 222° |
| 2026-04-25 06:44 | 42.61594 | 131.90612 | 20301 ft | 313 kts | 222° |
| 2026-04-25 06:44 | 42.59842 | 131.88901 | 20845 ft | 316 kts | 222° |
| 2026-04-25 06:44 | 42.58051 | 131.87153 | 21395 ft | 319 kts | 222° |
| 2026-04-25 06:44 | 42.56241 | 131.85387 | 21925 ft | 322 kts | 222° |
| 2026-04-25 06:45 | 42.54415 | 131.83608 | 22448 ft | 325 kts | 222° |
| 2026-04-25 06:45 | 42.52571 | 131.81811 | 22950 ft | 328 kts | 222° |
| 2026-04-25 06:45 | 42.50707 | 131.79999 | 23467 ft | 331 kts | 222° |
| 2026-04-25 06:45 | 42.48826 | 131.78173 | 23955 ft | 334 kts | 222° |
| 2026-04-25 06:46 | 42.46929 | 131.76334 | 24456 ft | 337 kts | 222° |
| 2026-04-25 06:46 | 42.45044 | 131.74506 | 24920 ft | 339 kts | 222° |
| 2026-04-25 06:46 | 42.43116 | 131.72637 | 25376 ft | 343 kts | 222° |
| 2026-04-25 06:46 | 42.41165 | 131.70749 | 25822 ft | 346 kts | 222° |
| 2026-04-25 06:47 | 42.39198 | 131.68849 | 26261 ft | 349 kts | 222° |
| 2026-04-25 06:47 | 42.37214 | 131.66933 | 26682 ft | 352 kts | 222° |
| 2026-04-25 06:47 | 42.35210 | 131.64994 | 27099 ft | 355 kts | 221° |
| 2026-04-25 06:47 | 42.33192 | 131.63040 | 27517 ft | 358 kts | 221° |
| 2026-04-25 06:48 | 42.31155 | 131.61074 | 27934 ft | 361 kts | 222° |
| 2026-04-25 06:48 | 42.29104 | 131.59097 | 28331 ft | 364 kts | 221° |
| 2026-04-25 06:48 | 42.27059 | 131.57132 | 28712 ft | 367 kts | 221° |
| 2026-04-25 06:48 | 42.24970 | 131.55130 | 29091 ft | 370 kts | 221° |
| 2026-04-25 06:49 | 42.22864 | 131.53111 | 29473 ft | 372 kts | 221° |
| 2026-04-25 06:49 | 42.20748 | 131.51078 | 29832 ft | 375 kts | 221° |
| 2026-04-25 06:49 | 42.18613 | 131.49028 | 30182 ft | 378 kts | 221° |
| 2026-04-25 06:49 | 42.16465 | 131.46970 | 30534 ft | 380 kts | 221° |
| 2026-04-25 06:50 | 42.14301 | 131.44900 | 30876 ft | 383 kts | 221° |
| 2026-04-25 06:50 | 42.12122 | 131.42823 | 31216 ft | 385 kts | 221° |
| 2026-04-25 06:50 | 42.09931 | 131.40731 | 31553 ft | 387 kts | 221° |
| 2026-04-25 06:50 | 42.07761 | 131.38655 | 31883 ft | 389 kts | 221° |
| 2026-04-25 06:51 | 42.05546 | 131.36542 | 32225 ft | 391 kts | 221° |
| 2026-04-25 06:51 | 42.03325 | 131.34428 | 32562 ft | 392 kts | 221° |
| 2026-04-25 06:51 | 42.01090 | 131.32303 | 32899 ft | 394 kts | 221° |
| 2026-04-25 06:51 | 41.98849 | 131.30175 | 33209 ft | 396 kts | 221° |
| 2026-04-25 06:52 | 41.96591 | 131.28036 | 33482 ft | 399 kts | 220° |
| 2026-04-25 06:52 | 41.94313 | 131.25883 | 33734 ft | 402 kts | 220° |
| 2026-04-25 06:52 | 41.92022 | 131.23717 | 33978 ft | 404 kts | 220° |
| 2026-04-25 06:53 | 41.88038 | 131.18654 | 34054 ft | 393 kts | 237° |
| 2026-04-25 06:53 | 41.84697 | 131.12857 | 34054 ft | 393 kts | 236° |
| 2026-04-25 06:54 | 41.81333 | 131.07085 | 34055 ft | 393 kts | 236° |
| 2026-04-25 06:54 | 41.77959 | 131.01316 | 34054 ft | 393 kts | 236° |
| 2026-04-25 06:55 | 41.74595 | 130.95553 | 34055 ft | 392 kts | 236° |
| 2026-04-25 06:55 | 41.71251 | 130.89838 | 34054 ft | 393 kts | 236° |
| 2026-04-25 06:56 | 41.67887 | 130.84086 | 34046 ft | 392 kts | 236° |
| 2026-04-25 06:56 | 41.64513 | 130.78351 | 34044 ft | 392 kts | 236° |
| 2026-04-25 06:57 | 41.61138 | 130.72627 | 34046 ft | 392 kts | 236° |
| 2026-04-25 06:57 | 41.57792 | 130.66949 | 34039 ft | 392 kts | 236° |
| 2026-04-25 06:58 | 41.54416 | 130.61232 | 34036 ft | 392 kts | 236° |
| 2026-04-25 06:58 | 41.51037 | 130.55523 | 34035 ft | 392 kts | 236° |
| 2026-04-25 06:59 | 41.47653 | 130.49828 | 34033 ft | 392 kts | 236° |
| 2026-04-25 06:59 | 41.44289 | 130.44175 | 34033 ft | 392 kts | 236° |
| 2026-04-25 07:00 | 41.40906 | 130.38485 | 34042 ft | 392 kts | 236° |
| 2026-04-25 07:00 | 41.37516 | 130.32805 | 34038 ft | 391 kts | 236° |
| 2026-04-25 07:01 | 41.34128 | 130.27134 | 34039 ft | 391 kts | 236° |
| 2026-04-25 07:01 | 41.30737 | 130.21469 | 34038 ft | 392 kts | 236° |
| 2026-04-25 07:02 | 41.27361 | 130.15836 | 34034 ft | 392 kts | 236° |
| 2026-04-25 07:02 | 41.23955 | 130.10175 | 34037 ft | 392 kts | 236° |
| 2026-04-25 07:03 | 41.20547 | 130.04508 | 34033 ft | 393 kts | 236° |
| 2026-04-25 07:03 | 41.17126 | 129.98851 | 34036 ft | 393 kts | 235° |
| 2026-04-25 07:04 | 41.13723 | 129.93230 | 34031 ft | 394 kts | 235° |
| 2026-04-25 07:04 | 41.10292 | 129.87553 | 34036 ft | 395 kts | 235° |
| 2026-04-25 07:05 | 41.06853 | 129.81879 | 34036 ft | 395 kts | 234° |
| 2026-04-25 07:05 | 41.03404 | 129.76207 | 34030 ft | 395 kts | 234° |
| 2026-04-25 07:06 | 40.99973 | 129.70569 | 34035 ft | 396 kts | 234° |
| 2026-04-25 07:06 | 40.96504 | 129.64892 | 34023 ft | 397 kts | 234° |
| 2026-04-25 07:07 | 40.93035 | 129.59221 | 34024 ft | 397 kts | 234° |
| 2026-04-25 07:07 | 40.89559 | 129.53545 | 34021 ft | 397 kts | 234° |
| 2026-04-25 07:08 | 40.86102 | 129.47914 | 34023 ft | 397 kts | 234° |
| 2026-04-25 07:08 | 40.82621 | 129.42236 | 34028 ft | 398 kts | 234° |
| 2026-04-25 07:09 | 40.79372 | 129.36950 | 34030 ft | 398 kts | 233° |
| 2026-04-25 07:09 | 40.75869 | 129.31286 | 34029 ft | 398 kts | 233° |
| 2026-04-25 07:10 | 40.72369 | 129.25623 | 34030 ft | 399 kts | 233° |
| 2026-04-25 07:10 | 40.68897 | 129.19988 | 34023 ft | 398 kts | 236° |
| 2026-04-25 07:11 | 40.66014 | 129.13803 | 34030 ft | 396 kts | 242° |
| 2026-04-25 07:11 | 40.63237 | 129.07528 | 34030 ft | 397 kts | 242° |
| 2026-04-25 07:12 | 40.60443 | 129.01273 | 34026 ft | 396 kts | 242° |
| 2026-04-25 07:12 | 40.56258 | 128.91927 | 34021 ft | 397 kts | 242° |
| 2026-04-25 07:13 | 40.53459 | 128.85664 | 34006 ft | 397 kts | 241° |
| 2026-04-25 07:13 | 40.50655 | 128.79403 | 34009 ft | 398 kts | 241° |
| 2026-04-25 07:14 | 40.47841 | 128.73143 | 34003 ft | 398 kts | 241° |
| 2026-04-25 07:14 | 40.45040 | 128.66923 | 34036 ft | 399 kts | 241° |
| 2026-04-25 07:15 | 40.42211 | 128.60655 | 34031 ft | 399 kts | 241° |
| 2026-04-25 07:15 | 40.39378 | 128.54387 | 34037 ft | 400 kts | 240° |
| 2026-04-25 07:16 | 40.36537 | 128.48117 | 34039 ft | 400 kts | 240° |
| 2026-04-25 07:16 | 40.33688 | 128.41848 | 34028 ft | 400 kts | 240° |
| 2026-04-25 07:17 | 40.30849 | 128.35614 | 34045 ft | 401 kts | 240° |
| 2026-04-25 07:17 | 40.27992 | 128.29339 | 34045 ft | 401 kts | 240° |
| 2026-04-25 07:18 | 40.25122 | 128.23053 | 34047 ft | 402 kts | 240° |
| 2026-04-25 07:18 | 40.22243 | 128.16772 | 34044 ft | 402 kts | 240° |
| 2026-04-25 07:19 | 40.19379 | 128.10536 | 34038 ft | 403 kts | 239° |
| 2026-04-25 07:19 | 40.16488 | 128.04268 | 34044 ft | 403 kts | 239° |
| 2026-04-25 07:20 | 40.13597 | 127.97995 | 34044 ft | 403 kts | 239° |
| 2026-04-25 07:20 | 40.10702 | 127.91714 | 34040 ft | 403 kts | 239° |
| 2026-04-25 07:21 | 40.07806 | 127.85446 | 34045 ft | 403 kts | 239° |
| 2026-04-25 07:21 | 40.04928 | 127.79222 | 34045 ft | 403 kts | 239° |
| 2026-04-25 07:22 | 40.02022 | 127.72959 | 34054 ft | 403 kts | 239° |
| 2026-04-25 07:22 | 39.99114 | 127.66711 | 34054 ft | 403 kts | 239° |
| 2026-04-25 07:23 | 39.96198 | 127.60472 | 34057 ft | 403 kts | 239° |
| 2026-04-25 07:23 | 39.92673 | 127.54880 | 34048 ft | 404 kts | 221° |
| 2026-04-25 07:24 | 39.87846 | 127.51154 | 34100 ft | 408 kts | 202° |
| 2026-04-25 07:24 | 39.82294 | 127.49465 | 34089 ft | 411 kts | 193° |
| 2026-04-25 07:25 | 39.76667 | 127.48110 | 34098 ft | 411 kts | 192° |
| 2026-04-25 07:25 | 39.71083 | 127.46768 | 34100 ft | 411 kts | 193° |
| 2026-04-25 07:26 | 39.65466 | 127.45380 | 34100 ft | 411 kts | 193° |
| 2026-04-25 07:26 | 39.59873 | 127.43879 | 34099 ft | 409 kts | 198° |
| 2026-04-25 07:27 | 39.54767 | 127.40785 | 34100 ft | 405 kts | 216° |
| 2026-04-25 07:27 | 39.50400 | 127.36225 | 34106 ft | 403 kts | 221° |
| 2026-04-25 07:28 | 39.46112 | 127.31620 | 34109 ft | 403 kts | 221° |
| 2026-04-25 07:28 | 39.41783 | 127.26999 | 34109 ft | 404 kts | 218° |
| 2026-04-25 07:29 | 39.36801 | 127.23653 | 34110 ft | 408 kts | 198° |
| 2026-04-25 07:29 | 39.31170 | 127.22798 | 34109 ft | 413 kts | 178° |
| 2026-04-25 07:30 | 39.25516 | 127.24057 | 34110 ft | 416 kts | 171° |
| 2026-04-25 07:30 | 39.19842 | 127.25481 | 34187 ft | 415 kts | 172° |
| 2026-04-25 07:31 | 39.17003 | 127.26190 | 34435 ft | 417 kts | 172° |
| 2026-04-25 07:31 | 39.14149 | 127.26902 | 34689 ft | 418 kts | 172° |
| 2026-04-25 07:31 | 39.11284 | 127.27617 | 34943 ft | 421 kts | 172° |
| 2026-04-25 07:31 | 39.08404 | 127.28340 | 35084 ft | 422 kts | 172° |
| 2026-04-25 07:32 | 39.02675 | 127.29786 | 35119 ft | 423 kts | 172° |
| 2026-04-25 07:32 | 38.96906 | 127.31241 | 35118 ft | 422 kts | 172° |
| 2026-04-25 07:33 | 38.91142 | 127.32682 | 35119 ft | 422 kts | 172° |
| 2026-04-25 07:33 | 38.85383 | 127.34108 | 35118 ft | 421 kts | 172° |
| 2026-04-25 07:34 | 38.79628 | 127.35544 | 35118 ft | 422 kts | 172° |
| 2026-04-25 07:34 | 38.73907 | 127.36976 | 35119 ft | 421 kts | 173° |
| 2026-04-25 07:35 | 38.68157 | 127.38410 | 35118 ft | 421 kts | 173° |
| 2026-04-25 07:35 | 38.62414 | 127.39831 | 35120 ft | 420 kts | 173° |
| 2026-04-25 07:36 | 38.56670 | 127.41251 | 35120 ft | 420 kts | 173° |
| 2026-04-25 07:36 | 38.50932 | 127.42664 | 35120 ft | 420 kts | 173° |
| 2026-04-25 07:37 | 38.45244 | 127.44064 | 35118 ft | 419 kts | 173° |
| 2026-04-25 07:37 | 38.39518 | 127.45476 | 35117 ft | 419 kts | 173° |
| 2026-04-25 07:38 | 38.33796 | 127.46884 | 35119 ft | 419 kts | 173° |
| 2026-04-25 07:38 | 38.28073 | 127.48289 | 35118 ft | 419 kts | 173° |
| 2026-04-25 07:39 | 38.22361 | 127.49695 | 35119 ft | 418 kts | 173° |
| 2026-04-25 07:39 | 38.16684 | 127.51083 | 35117 ft | 418 kts | 173° |
| 2026-04-25 07:40 | 38.10971 | 127.52482 | 35118 ft | 418 kts | 173° |
| 2026-04-25 07:40 | 38.05252 | 127.53880 | 35118 ft | 418 kts | 173° |
| 2026-04-25 07:41 | 37.99541 | 127.55265 | 35117 ft | 419 kts | 173° |
| 2026-04-25 07:41 | 37.93865 | 127.56644 | 35118 ft | 417 kts | 173° |
| 2026-04-25 07:42 | 37.88162 | 127.58026 | 35134 ft | 417 kts | 174° |
| 2026-04-25 07:42 | 37.82463 | 127.59415 | 35140 ft | 417 kts | 173° |
| 2026-04-25 07:43 | 37.76763 | 127.60801 | 35129 ft | 417 kts | 173° |
| 2026-04-25 07:43 | 37.71066 | 127.62171 | 35090 ft | 417 kts | 174° |
| 2026-04-25 07:44 | 37.65406 | 127.63537 | 35053 ft | 417 kts | 174° |
| 2026-04-25 07:44 | 37.59699 | 127.64578 | 34814 ft | 412 kts | 187° |
| 2026-04-25 07:45 | 37.56927 | 127.63878 | 33689 ft | 405 kts | 207° |
| 2026-04-25 07:45 | 37.54565 | 127.62020 | 32648 ft | 400 kts | 224° |
| 2026-04-25 07:45 | 37.52788 | 127.59363 | 31692 ft | 396 kts | 240° |
| 2026-04-25 07:45 | 37.51741 | 127.56209 | 31190 ft | 384 kts | 256° |
| 2026-04-25 07:46 | 37.51181 | 127.53016 | 30735 ft | 373 kts | 257° |
| 2026-04-25 07:46 | 37.50656 | 127.49867 | 30212 ft | 365 kts | 257° |
| 2026-04-25 07:46 | 37.50149 | 127.46752 | 29588 ft | 363 kts | 258° |
| 2026-04-25 07:46 | 37.49651 | 127.43680 | 29399 ft | 354 kts | 257° |
| 2026-04-25 07:47 | 37.48907 | 127.40737 | 28985 ft | 352 kts | 245° |
| 2026-04-25 07:47 | 37.47698 | 127.38071 | 28551 ft | 351 kts | 234° |
| 2026-04-25 07:47 | 37.46094 | 127.35782 | 28167 ft | 348 kts | 223° |
| 2026-04-25 07:47 | 37.44186 | 127.33916 | 27767 ft | 347 kts | 217° |
| 2026-04-25 07:48 | 37.42221 | 127.32171 | 27380 ft | 345 kts | 217° |
| 2026-04-25 07:48 | 37.40270 | 127.30436 | 26981 ft | 342 kts | 216° |
| 2026-04-25 07:48 | 37.38358 | 127.28737 | 26580 ft | 340 kts | 217° |
| 2026-04-25 07:48 | 37.36438 | 127.27028 | 26182 ft | 337 kts | 217° |
| 2026-04-25 07:49 | 37.34530 | 127.25334 | 25759 ft | 335 kts | 217° |
| 2026-04-25 07:49 | 37.32637 | 127.23655 | 25338 ft | 332 kts | 217° |
| 2026-04-25 07:49 | 37.30759 | 127.21966 | 24907 ft | 330 kts | 220° |
| 2026-04-25 07:49 | 37.29149 | 127.19945 | 24483 ft | 326 kts | 233° |
| 2026-04-25 07:50 | 37.27975 | 127.17527 | 24047 ft | 324 kts | 246° |
| 2026-04-25 07:50 | 37.27291 | 127.14842 | 23619 ft | 324 kts | 258° |
| 2026-04-25 07:50 | 37.27115 | 127.12067 | 23201 ft | 323 kts | 269° |
| 2026-04-25 07:50 | 37.27128 | 127.09252 | 22775 ft | 322 kts | 269° |
| 2026-04-25 07:51 | 37.27135 | 127.06441 | 22348 ft | 322 kts | 269° |
| 2026-04-25 07:51 | 37.27140 | 127.03638 | 21934 ft | 321 kts | 269° |
| 2026-04-25 07:51 | 37.27140 | 127.00842 | 21518 ft | 320 kts | 268° |
| 2026-04-25 07:51 | 37.27139 | 126.98085 | 21350 ft | 311 kts | 269° |
| 2026-04-25 07:52 | 37.27139 | 126.95413 | 21238 ft | 301 kts | 268° |
| 2026-04-25 07:52 | 37.27275 | 126.92835 | 21108 ft | 293 kts | 280° |
| 2026-04-25 07:52 | 37.27952 | 126.90466 | 20952 ft | 287 kts | 296° |
| 2026-04-25 07:52 | 37.29138 | 126.88424 | 20495 ft | 294 kts | 312° |
| 2026-04-25 07:53 | 37.30580 | 126.86632 | 20071 ft | 296 kts | 313° |
| 2026-04-25 07:53 | 37.32050 | 126.84806 | 19646 ft | 299 kts | 313° |
| 2026-04-25 07:53 | 37.33532 | 126.82966 | 19221 ft | 300 kts | 313° |
| 2026-04-25 07:53 | 37.35017 | 126.81098 | 18776 ft | 303 kts | 312° |
| 2026-04-25 07:54 | 37.36458 | 126.79151 | 18300 ft | 305 kts | 305° |
| 2026-04-25 07:54 | 37.37322 | 126.76756 | 17841 ft | 302 kts | 278° |
| 2026-04-25 07:54 | 37.37271 | 126.74139 | 17357 ft | 303 kts | 254° |
| 2026-04-25 07:54 | 37.36306 | 126.71794 | 16848 ft | 306 kts | 228° |
| 2026-04-25 07:55 | 37.34532 | 126.70333 | 16333 ft | 312 kts | 198° |
| 2026-04-25 07:55 | 37.32365 | 126.70208 | 15857 ft | 318 kts | 168° |
| 2026-04-25 07:55 | 37.30409 | 126.71426 | 15445 ft | 322 kts | 144° |
| 2026-04-25 07:55 | 37.28686 | 126.73250 | 14938 ft | 326 kts | 139° |
| 2026-04-25 07:56 | 37.26994 | 126.75162 | 14474 ft | 328 kts | 140° |
| 2026-04-25 07:56 | 37.25265 | 126.77028 | 14022 ft | 328 kts | 141° |
| 2026-04-25 07:56 | 37.23481 | 126.78810 | 13564 ft | 327 kts | 144° |
| 2026-04-25 07:56 | 37.21674 | 126.80499 | 13023 ft | 321 kts | 145° |
| 2026-04-25 07:57 | 37.19876 | 126.82103 | 12555 ft | 313 kts | 146° |
| 2026-04-25 07:57 | 37.18111 | 126.83640 | 12121 ft | 305 kts | 146° |
| 2026-04-25 07:57 | 37.16404 | 126.85115 | 11654 ft | 299 kts | 146° |
| 2026-04-25 07:57 | 37.14638 | 126.86396 | 11197 ft | 289 kts | 165° |
| 2026-04-25 07:58 | 37.12706 | 126.86456 | 10871 ft | 273 kts | 198° |
| 2026-04-25 07:58 | 37.11170 | 126.85222 | 10468 ft | 262 kts | 230° |
| 2026-04-25 07:58 | 37.10086 | 126.83393 | 9927 ft | 261 kts | 235° |
| 2026-04-25 07:58 | 37.09279 | 126.81407 | 9465 ft | 255 kts | 260° |
| 2026-04-25 07:59 | 37.09429 | 126.79247 | 9067 ft | 250 kts | 292° |
| 2026-04-25 07:59 | 37.10467 | 126.77567 | 8701 ft | 244 kts | 322° |
| 2026-04-25 07:59 | 37.11812 | 126.76361 | 8352 ft | 238 kts | 324° |
| 2026-04-25 07:59 | 37.13150 | 126.75184 | 8014 ft | 232 kts | 324° |
| 2026-04-25 08:00 | 37.14459 | 126.74039 | 7676 ft | 227 kts | 324° |
| 2026-04-25 08:00 | 37.15736 | 126.72913 | 7334 ft | 223 kts | 323° |
| 2026-04-25 08:00 | 37.16986 | 126.71811 | 7019 ft | 217 kts | 324° |
| 2026-04-25 08:00 | 37.18207 | 126.70733 | 6720 ft | 213 kts | 323° |
| 2026-04-25 08:01 | 37.19424 | 126.69660 | 6273 ft | 214 kts | 323° |
| 2026-04-25 08:01 | 37.20629 | 126.68599 | 5942 ft | 210 kts | 323° |
| 2026-04-25 08:01 | 37.21798 | 126.67569 | 5659 ft | 207 kts | 323° |
| 2026-04-25 08:01 | 37.22972 | 126.66533 | 5405 ft | 207 kts | 323° |
| 2026-04-25 08:02 | 37.24152 | 126.65492 | 5128 ft | 207 kts | 323° |
| 2026-04-25 08:02 | 37.25335 | 126.64447 | 4838 ft | 208 kts | 323° |
| 2026-04-25 08:02 | 37.26522 | 126.63400 | 4562 ft | 209 kts | 323° |
| 2026-04-25 08:02 | 37.27713 | 126.62346 | 4280 ft | 209 kts | 323° |
| 2026-04-25 08:03 | 37.28889 | 126.61310 | 4025 ft | 205 kts | 323° |
| 2026-04-25 08:03 | 37.30045 | 126.60289 | 3730 ft | 201 kts | 323° |
| 2026-04-25 08:03 | 37.31180 | 126.59285 | 3465 ft | 198 kts | 323° |
| 2026-04-25 08:03 | 37.32278 | 126.58314 | 3218 ft | 194 kts | 323° |
| 2026-04-25 08:04 | 37.33372 | 126.57347 | 2943 ft | 191 kts | 323° |
| 2026-04-25 08:04 | 37.34447 | 126.56394 | 2701 ft | 188 kts | 323° |
| 2026-04-25 08:04 | 37.35505 | 126.55458 | 2454 ft | 185 kts | 323° |
| 2026-04-25 08:04 | 37.36547 | 126.54533 | 2213 ft | 182 kts | 322° |
| 2026-04-25 08:05 | 37.37554 | 126.53642 | 1977 ft | 171 kts | 323° |
| 2026-04-25 08:05 | 37.38493 | 126.52810 | 1751 ft | 160 kts | 323° |
| 2026-04-25 08:05 | 37.39376 | 126.52027 | 1542 ft | 151 kts | 322° |
| 2026-04-25 08:05 | 37.40214 | 126.51284 | 1355 ft | 145 kts | 322° |
| 2026-04-25 08:06 | 37.41032 | 126.50558 | 1162 ft | 142 kts | 323° |
| 2026-04-25 08:06 | 37.41827 | 126.49852 | 976 ft | 142 kts | 323° |
| 2026-04-25 08:06 | 37.42618 | 126.49150 | 796 ft | 135 kts | 323° |
| 2026-04-25 08:06 | 37.43371 | 126.48482 | 621 ft | 131 kts | 322° |
| 2026-04-25 08:07 | 37.44116 | 126.47828 | 407 ft | 130 kts | 323° |
| 2026-04-25 08:07 | 37.44852 | 126.47176 | 272 ft | 129 kts | 323° |
| 2026-04-25 08:07 | 37.45588 | 126.46511 | 72 ft | 130 kts | 323° |
| 2026-04-25 08:07 | 37.46311 | 126.45864 | 27 ft | 121 kts | 324° |
| 2026-04-25 08:08 | 37.46911 | 126.45334 | 24 ft | 85 kts | 325° |
| 2026-04-25 08:08 | 37.47253 | 126.45032 | 26 ft | 42 kts | 324° |
| 2026-04-25 08:08 | 37.47424 | 126.44821 | 23 ft | 34 kts | 300° |
| 2026-04-25 08:08 | 37.47462 | 126.44723 | 24 ft | 0 kts | 295° |
| 2026-04-25 08:09 | 37.47463 | 126.44720 | 25 ft | 3 kts | 295° |
| 2026-04-25 08:09 | 37.47468 | 126.44645 | 25 ft | 11 kts | 242° |
| 2026-04-25 08:10 | 37.47398 | 126.44637 | 24 ft | 11 kts | 153° |
| 2026-04-25 08:10 | 37.47353 | 126.44584 | 25 ft | 10 kts | 247° |
| 2026-04-25 08:10 | 37.47313 | 126.44473 | 23 ft | 19 kts | 245° |
| 2026-04-25 08:10 | 37.47250 | 126.44321 | 23 ft | 20 kts | 236° |
| 2026-04-25 08:11 | 37.47158 | 126.44186 | 23 ft | 21 kts | 227° |
| 2026-04-25 08:11 | 37.47064 | 126.44049 | 23 ft | 21 kts | 232° |
| 2026-04-25 08:11 | 37.47086 | 126.43900 | 25 ft | 20 kts | 325° |
| 2026-04-25 08:11 | 37.47183 | 126.43892 | 23 ft | 14 kts | 43° |
| 2026-04-25 08:12 | 37.47200 | 126.43920 | 23 ft | 0 kts | 53° |